createdAt,value
2023-05-01T00:02:59.151Z,1.60
2023-05-01T00:07:59.986Z,1.50
2023-05-01T00:13:00.754Z,1.60
2023-05-01T00:18:01.618Z,1.40
2023-05-01T00:23:02.534Z,1.60
2023-05-01T00:28:03.440Z,1.60
2023-05-01T00:33:04.251Z,1.92
2023-05-01T00:38:05.166Z,1.98
2023-05-01T00:43:06.155Z,1.60
2023-05-01T00:48:08.618Z,1.77
2023-05-01T00:53:10.404Z,1.90
2023-05-01T00:58:12.389Z,1.50
2023-05-01T01:03:13.229Z,2.20
2023-05-01T01:08:33.151Z,2.00
2023-05-01T01:14:14.820Z,2.03
2023-05-01T01:20:13.219Z,1.80
2023-05-01T01:28:23.926Z,2.15
2023-05-01T01:33:54.072Z,2.00
2023-05-01T01:39:09.796Z,2.30
2023-05-01T01:44:22.420Z,2.00
2023-05-01T01:49:27.056Z,2.10
2023-05-01T01:54:35.667Z,1.85
2023-05-01T01:59:36.631Z,1.70
2023-05-01T02:04:40.538Z,2.25
2023-05-01T02:09:43.131Z,2.00
2023-05-01T02:14:45.424Z,1.77
2023-05-01T02:19:46.908Z,1.90
2023-05-01T02:24:48.672Z,2.08
2023-05-01T02:29:53.674Z,2.30
2023-05-01T02:34:54.575Z,1.98
2023-05-01T02:39:56.641Z,1.65
2023-05-01T02:45:01.670Z,2.00
2023-05-01T02:50:04.840Z,2.08
2023-05-01T02:55:07.638Z,1.87
2023-05-01T03:00:12.924Z,2.22
2023-05-01T03:05:14.145Z,1.98
2023-05-01T03:10:15.047Z,1.92
2023-05-01T03:15:17.793Z,2.20
2023-05-01T03:20:18.591Z,2.50
2023-05-01T03:25:19.379Z,2.42
2023-05-01T03:30:21.753Z,2.30
2023-05-01T03:35:22.699Z,2.10
2023-05-01T03:40:23.914Z,2.22
2023-05-01T03:45:56.593Z,1.70
2023-05-01T03:50:57.466Z,2.40
2023-05-01T03:55:58.275Z,2.85
2023-05-01T04:01:00.110Z,2.03
2023-05-01T04:06:01.839Z,2.28
2023-05-01T04:11:02.660Z,2.00
2023-05-01T04:16:05.723Z,2.05
2023-05-01T04:21:06.723Z,2.08
2023-05-01T04:26:07.601Z,2.75
2023-05-01T04:31:09.124Z,2.95
2023-05-01T04:36:10.006Z,2.25
2023-05-01T04:41:10.895Z,3.22
2023-05-01T04:46:11.922Z,2.40
2023-05-01T04:51:12.838Z,2.97
2023-05-01T04:56:13.906Z,2.55
2023-05-01T05:01:15.525Z,2.17
2023-05-01T05:06:16.434Z,2.58
2023-05-01T05:11:20.362Z,3.12
2023-05-01T05:16:44.532Z,2.60
2023-05-01T05:21:45.416Z,2.72
2023-05-01T05:26:46.502Z,2.75
2023-05-01T05:31:47.480Z,2.70
2023-05-01T05:36:49.144Z,3.05
2023-05-01T05:41:53.339Z,3.15
2023-05-01T05:46:54.801Z,3.05
2023-05-01T05:52:02.282Z,3.05
2023-05-01T05:57:03.451Z,3.47
2023-05-01T06:02:06.360Z,3.47
2023-05-01T06:07:07.726Z,2.58
2023-05-01T06:12:08.571Z,3.03
2023-05-01T06:17:09.823Z,3.33
2023-05-01T06:22:11.370Z,3.87
2023-05-01T06:27:17.495Z,2.83
2023-05-01T06:32:18.475Z,2.72
2023-05-01T06:37:19.561Z,3.22
2023-05-01T06:42:20.903Z,3.12
2023-05-01T06:47:21.803Z,2.83
2023-05-01T06:52:22.629Z,3.03
2023-05-01T06:57:23.364Z,3.10
2023-05-01T07:02:25.162Z,3.35
2023-05-01T07:07:25.957Z,2.75
2023-05-01T07:12:26.821Z,2.80
2023-05-01T07:17:28.757Z,3.22
2023-05-01T07:22:29.919Z,2.87
2023-05-01T07:27:30.644Z,3.30
2023-05-01T07:32:32.283Z,3.28
2023-05-01T07:37:33.162Z,10.20
2023-05-01T07:42:33.959Z,5.22
2023-05-01T07:47:34.778Z,3.70
2023-05-01T07:52:36.252Z,3.15
2023-05-01T07:57:37.834Z,3.90
2023-05-01T08:02:40.092Z,3.53
2023-05-01T08:07:40.920Z,3.35
2023-05-01T08:12:41.745Z,3.33
2023-05-01T08:17:42.575Z,3.65
2023-05-01T08:22:43.579Z,3.80
2023-05-01T08:27:44.398Z,3.80
2023-05-01T08:32:45.311Z,3.92
2023-05-01T08:37:46.048Z,3.67
2023-05-01T08:42:48.411Z,2.83
2023-05-01T08:47:51.514Z,3.70
2023-05-01T08:52:53.408Z,3.50
2023-05-01T08:57:56.967Z,3.95
2023-05-01T09:03:02.325Z,3.45
2023-05-01T09:08:03.400Z,3.90
2023-05-01T09:13:06.349Z,3.55
2023-05-01T09:18:08.301Z,3.62
2023-05-01T09:23:09.248Z,3.90
2023-05-01T09:28:10.076Z,3.70
2023-05-01T09:33:13.237Z,3.70
2023-05-01T09:38:22.539Z,3.60
2023-05-01T09:43:28.212Z,3.72
2023-05-01T09:48:30.658Z,3.87
2023-05-01T09:53:37.478Z,4.05
2023-05-01T09:58:38.448Z,3.92
2023-05-01T10:03:40.405Z,4.65
2023-05-01T10:08:45.960Z,3.87
2023-05-01T10:14:05.761Z,3.80
2023-05-01T10:19:07.001Z,4.37
2023-05-01T10:24:09.416Z,4.40
2023-05-01T10:29:11.847Z,3.85
2023-05-01T10:34:17.763Z,3.95
2023-05-01T10:39:35.478Z,3.72
2023-05-01T10:44:36.953Z,4.05
2023-05-01T10:50:04.050Z,4.30
2023-05-01T10:55:33.787Z,3.87
2023-05-01T11:00:34.616Z,4.35
2023-05-01T11:06:27.547Z,4.00
2023-05-01T11:11:49.909Z,4.40
2023-05-01T11:16:50.795Z,4.63
2023-05-01T11:21:53.453Z,4.22
2023-05-01T11:31:55.817Z,4.40
2023-05-01T11:36:56.901Z,3.85
2023-05-01T11:42:09.938Z,4.03
2023-05-01T11:52:12.102Z,3.80
2023-05-01T11:57:13.375Z,3.55
2023-05-01T12:02:20.352Z,3.45
2023-05-01T12:07:22.567Z,3.40
2023-05-01T12:12:23.467Z,3.80
2023-05-01T12:17:24.672Z,3.47
2023-05-01T12:22:25.703Z,3.45
2023-05-01T12:27:26.634Z,3.00
2023-05-01T12:32:32.172Z,3.45
2023-05-01T12:37:33.226Z,3.33
2023-05-01T12:42:34.133Z,3.33
2023-05-01T12:47:38.480Z,3.10
2023-05-01T12:52:39.337Z,3.08
2023-05-01T12:57:54.151Z,3.03
2023-05-01T13:03:02.763Z,3.28
2023-05-01T13:08:03.963Z,3.28
2023-05-01T13:13:04.818Z,3.08
2023-05-01T13:18:05.740Z,2.90
2023-05-01T13:23:12.588Z,3.12
2023-05-01T13:28:18.837Z,3.40
2023-05-01T13:33:19.911Z,3.08
2023-05-01T13:38:23.794Z,2.90
2023-05-01T13:43:24.650Z,2.67
2023-05-01T13:48:25.463Z,2.95
2023-05-01T13:53:26.280Z,2.60
2023-05-01T13:58:31.775Z,2.72
2023-05-01T14:03:39.989Z,2.60
2023-05-01T14:08:42.346Z,2.45
2023-05-01T14:13:48.733Z,2.37
2023-05-01T14:18:53.668Z,2.60
2023-05-01T14:23:56.356Z,2.30
2023-05-01T14:28:57.160Z,2.33
2023-05-01T14:34:06.174Z,2.28
2023-05-01T14:39:07.706Z,2.60
2023-05-01T14:44:17.239Z,2.47
2023-05-01T14:49:20.314Z,2.55
2023-05-01T14:54:21.315Z,2.37
2023-05-01T14:59:23.796Z,1.77
2023-05-01T15:04:24.639Z,2.50
2023-05-01T15:09:25.570Z,2.15
2023-05-01T15:14:26.474Z,2.42
2023-05-01T15:19:27.259Z,2.12
2023-05-01T15:24:27.990Z,2.30
2023-05-01T15:29:28.816Z,2.42
2023-05-01T15:34:29.710Z,2.50
2023-05-01T15:39:32.480Z,2.80
2023-05-01T15:44:33.210Z,2.75
2023-05-01T15:49:33.986Z,2.90
2023-05-01T15:54:34.771Z,2.53
2023-05-01T15:59:40.999Z,2.70
2023-05-01T16:04:45.649Z,2.65
2023-05-01T16:09:47.136Z,3.30
2023-05-01T16:14:48.139Z,2.70
2023-05-01T16:19:49.075Z,2.87
2023-05-01T16:24:50.114Z,5.45
2023-05-01T16:29:51.069Z,2.92
2023-05-01T16:34:51.866Z,3.17
2023-05-01T16:39:52.928Z,4.75
2023-05-01T16:44:55.671Z,2.35
2023-05-01T16:49:59.283Z,3.45
2023-05-01T16:55:01.349Z,3.12
2023-05-01T17:00:04.871Z,3.22
2023-05-01T17:05:06.740Z,4.85
2023-05-01T17:10:08.630Z,3.53
2023-05-01T17:15:09.705Z,3.60
2023-05-01T17:20:11.280Z,6.68
2023-05-01T17:25:12.417Z,5.37
2023-05-01T17:30:13.223Z,4.20
2023-05-01T17:35:14.872Z,4.25
2023-05-01T17:40:15.901Z,4.68
2023-05-01T17:45:16.852Z,4.78
2023-05-01T17:50:17.772Z,4.80
2023-05-01T17:55:18.742Z,5.22
2023-05-01T18:00:20.584Z,5.15
2023-05-01T18:05:21.831Z,5.50
2023-05-01T18:10:22.731Z,4.43
2023-05-01T18:15:23.692Z,4.57
2023-05-01T18:20:24.745Z,4.32
2023-05-01T18:25:25.776Z,4.18
2023-05-01T18:30:26.663Z,3.80
2023-05-01T18:35:27.400Z,3.25
2023-05-01T18:40:28.328Z,3.50
2023-05-01T18:45:29.971Z,3.75
2023-05-01T18:50:31.159Z,4.40
2023-05-01T18:55:32.315Z,3.75
2023-05-01T19:00:33.195Z,3.97
2023-05-01T19:05:34.012Z,3.53
2023-05-01T19:10:37.305Z,3.67
2023-05-01T19:20:39.016Z,5.62
2023-05-01T19:25:39.829Z,4.30
2023-05-01T19:30:40.620Z,5.32
2023-05-01T19:35:41.374Z,7.95
2023-05-01T19:40:44.082Z,5.50
2023-05-01T19:45:44.855Z,3.60
2023-05-01T19:50:50.254Z,3.35
2023-05-01T19:55:51.002Z,3.30
2023-05-01T20:00:57.006Z,3.37
2023-05-01T20:05:57.908Z,3.35
2023-05-01T20:10:59.988Z,4.03
2023-05-01T20:16:00.998Z,4.90
2023-05-01T20:21:01.856Z,4.18
2023-05-01T20:26:03.512Z,3.70
2023-05-01T20:31:04.363Z,4.65
2023-05-01T20:36:06.140Z,7.50
2023-05-01T20:41:07.058Z,3.37
2023-05-01T20:46:07.891Z,3.33
2023-05-01T20:51:08.926Z,3.17
2023-05-01T20:56:09.662Z,3.30
2023-05-01T21:01:11.309Z,3.10
2023-05-01T21:06:15.215Z,3.40
2023-05-01T21:11:16.337Z,3.35
2023-05-01T21:16:18.826Z,3.50
2023-05-01T21:21:19.980Z,3.87
2023-05-01T21:26:20.792Z,3.42
2023-05-01T21:31:29.395Z,3.87
2023-05-01T21:36:33.022Z,3.12
2023-05-01T21:41:34.567Z,3.00
2023-05-01T21:46:36.290Z,3.20
2023-05-01T21:51:38.480Z,3.20
2023-05-01T21:56:39.276Z,3.28
2023-05-01T22:01:40.544Z,3.60
2023-05-01T22:06:41.523Z,3.80
2023-05-01T22:11:42.582Z,3.58
2023-05-01T22:16:43.464Z,3.40
2023-05-01T22:21:44.321Z,3.78
2023-05-01T22:26:45.452Z,3.72
2023-05-01T22:31:46.319Z,4.03
2023-05-01T22:36:47.124Z,3.95
2023-05-01T22:41:48.073Z,3.30
2023-05-01T22:46:49.131Z,3.28
2023-05-01T22:51:50.288Z,3.22
2023-05-01T22:56:51.083Z,4.90
2023-05-01T23:01:52.291Z,6.10
2023-05-01T23:06:53.151Z,5.20
2023-05-01T23:11:54.098Z,5.50
2023-05-01T23:16:54.815Z,4.90
2023-05-01T23:22:10.213Z,5.78
2023-05-01T23:27:12.693Z,7.53
2023-05-01T23:32:21.089Z,7.87
2023-05-01T23:37:21.932Z,7.37
2023-05-01T23:42:23.043Z,10.23
2023-05-01T23:47:23.975Z,9.43
2023-05-01T23:52:25.217Z,10.65
2023-05-01T23:57:26.279Z,10.50
